createdAt,value
2017-12-16T00:00:37.017Z,7.96
2017-12-16T00:01:17.424Z,8.09
2017-12-16T00:01:57.857Z,8.03
2017-12-16T00:02:38.257Z,8.13
2017-12-16T00:03:18.675Z,8.18
2017-12-16T00:03:59.035Z,8.34
2017-12-16T00:04:39.444Z,8.29
2017-12-16T00:05:19.821Z,8.32
2017-12-16T00:06:00.211Z,8.29
2017-12-16T00:06:40.644Z,8.18
2017-12-16T00:07:21.033Z,8.31
2017-12-16T00:08:01.385Z,8.31
2017-12-16T00:08:41.805Z,8.4
2017-12-16T00:09:22.235Z,8.4
2017-12-16T00:10:02.612Z,8.4
2017-12-16T00:10:42.989Z,8.4
2017-12-16T00:11:23.387Z,8.42
2017-12-16T00:12:03.784Z,8.37
2017-12-16T00:12:44.212Z,8.45
2017-12-16T00:13:24.615Z,8.47
2017-12-16T00:14:04.983Z,8.47
2017-12-16T00:14:45.402Z,8.54
2017-12-16T00:15:25.806Z,8.55
2017-12-16T00:16:06.206Z,8.58
2017-12-16T00:16:46.565Z,8.54
2017-12-16T00:17:26.967Z,8.52
2017-12-16T00:18:07.409Z,8.55
2017-12-16T00:20:04.988Z,8.63
2017-12-16T00:20:47.396Z,8.58
2017-12-16T00:21:26.396Z,8.68
2017-12-16T00:22:06.836Z,8.67
2017-12-16T00:22:47.232Z,8.63
2017-12-16T00:23:27.615Z,8.71
2017-12-16T00:25:36.608Z,8.73
2017-12-16T00:26:26.629Z,8.68
2017-12-16T00:27:17.545Z,8.64
2017-12-16T00:28:05.975Z,8.71
2017-12-16T00:28:55.659Z,8.78
2017-12-16T00:29:46.231Z,8.73
2017-12-16T00:30:35.024Z,8.79
2017-12-16T00:31:26.052Z,8.78
2017-12-16T00:32:14.693Z,8.73
2017-12-16T00:33:04.062Z,8.73
2017-12-16T00:33:52.920Z,8.76
2017-12-16T00:34:43.350Z,8.78
2017-12-16T00:35:34.541Z,8.75
2017-12-16T00:36:24.919Z,8.91
2017-12-16T00:37:13.547Z,8.96
2017-12-16T00:38:05.657Z,8.94
2017-12-16T00:38:54.512Z,9
2017-12-16T00:39:43.303Z,9.1
2017-12-16T00:40:33.776Z,8.94
2017-12-16T00:41:24.060Z,8.88
2017-12-16T00:42:12.559Z,8.86
2017-12-16T00:43:01.286Z,8.78
2017-12-16T00:43:51.093Z,8.91
2017-12-16T00:44:39.667Z,8.96
2017-12-16T00:45:30.033Z,9.01
2017-12-16T00:46:18.896Z,8.94
2017-12-16T00:47:10.080Z,8.94
2017-12-16T00:47:59.053Z,9.1
2017-12-16T00:48:48.223Z,9.13
2017-12-16T00:49:38.688Z,9.04
2017-12-16T00:50:28.519Z,9.1
2017-12-16T00:51:17.105Z,9.12
2017-12-16T00:52:05.977Z,9.08
2017-12-16T00:52:56.008Z,9.1
2017-12-16T00:55:16.645Z,9.12
2017-12-16T00:56:03.472Z,9.13
2017-12-16T00:56:41.879Z,9.12
2017-12-16T00:57:22.258Z,9.1
2017-12-16T00:58:02.643Z,9.08
2017-12-16T00:58:43.045Z,9.1
2017-12-16T00:59:23.473Z,9.1
2017-12-16T01:00:03.844Z,9.06
2017-12-16T01:00:44.229Z,9.15
2017-12-16T01:01:24.641Z,9.13
2017-12-16T01:02:05.059Z,9.15
2017-12-16T01:02:45.443Z,9.2
2017-12-16T01:03:25.846Z,9.16
2017-12-16T01:04:06.255Z,9.22
2017-12-16T01:04:46.695Z,9.13
2017-12-16T01:05:27.077Z,9.22
2017-12-16T01:06:07.447Z,9.16
2017-12-16T01:06:47.865Z,9.2
2017-12-16T01:07:28.286Z,9.19
2017-12-16T01:08:08.709Z,9.17
2017-12-16T01:08:49.097Z,9.2
2017-12-16T01:09:29.490Z,9.08
2017-12-16T01:10:09.875Z,9.08
2017-12-16T01:10:50.260Z,9.1
2017-12-16T01:11:30.653Z,9.06
2017-12-16T01:12:11.036Z,9.08
2017-12-16T01:12:51.481Z,9.12
2017-12-16T01:13:31.863Z,9.08
2017-12-16T01:14:12.246Z,9.12
2017-12-16T01:14:52.613Z,9.1
2017-12-16T01:15:33.015Z,9.15
2017-12-16T01:16:13.434Z,9
2017-12-16T01:16:53.857Z,8.94
2017-12-16T01:17:34.227Z,8.94
2017-12-16T01:18:14.609Z,8.97
2017-12-16T01:18:55.030Z,8.91
2017-12-16T01:19:35.434Z,8.96
2017-12-16T01:20:15.818Z,8.93
2017-12-16T01:20:56.217Z,8.96
2017-12-16T01:21:36.626Z,8.93
2017-12-16T01:22:16.999Z,8.98
2017-12-16T01:22:57.415Z,8.91
2017-12-16T01:23:37.810Z,8.98
2017-12-16T01:24:18.143Z,8.88
2017-12-16T01:24:58.540Z,8.91
2017-12-16T01:25:38.945Z,8.8
2017-12-16T01:26:19.362Z,8.83
2017-12-16T01:26:59.728Z,8.78
2017-12-16T01:27:40.139Z,8.68
2017-12-16T01:28:20.559Z,8.64
2017-12-16T01:29:00.958Z,8.76
2017-12-16T01:29:41.327Z,8.71
2017-12-16T01:30:21.725Z,8.78
2017-12-16T01:31:02.171Z,8.67
2017-12-16T01:31:42.545Z,8.71
2017-12-16T01:32:22.908Z,8.71
2017-12-16T01:33:03.316Z,8.7
2017-12-16T01:33:43.664Z,8.65
2017-12-16T01:34:24.076Z,8.68
2017-12-16T01:35:04.470Z,8.57
2017-12-16T01:35:44.874Z,8.6
2017-12-16T01:36:25.271Z,8.61
2017-12-16T01:37:05.726Z,8.54
2017-12-16T01:37:46.102Z,8.54
2017-12-16T01:38:26.493Z,8.57
2017-12-16T01:39:06.962Z,8.6
2017-12-16T01:39:47.332Z,8.63
2017-12-16T01:40:27.726Z,8.49
2017-12-16T01:41:08.127Z,8.61
2017-12-16T01:41:48.523Z,8.58
2017-12-16T01:42:28.950Z,8.55
2017-12-16T01:43:09.325Z,8.55
2017-12-16T01:43:49.715Z,8.67
2017-12-16T01:44:30.124Z,8.63
2017-12-16T01:45:10.494Z,8.65
2017-12-16T01:45:50.924Z,8.65
2017-12-16T01:46:31.305Z,8.58
2017-12-16T01:47:11.706Z,8.58
2017-12-16T01:47:52.121Z,8.58
2017-12-16T01:48:32.550Z,8.57
2017-12-16T01:49:12.932Z,8.68
2017-12-16T01:50:50.752Z,8.7
2017-12-16T01:51:36.857Z,8.78
2017-12-16T01:52:18.340Z,8.78
2017-12-16T01:52:58.745Z,8.76
2017-12-16T01:53:39.172Z,8.75
2017-12-16T01:54:19.610Z,8.79
2017-12-16T01:55:00.038Z,8.76
2017-12-16T01:55:40.425Z,8.78
2017-12-16T01:56:20.747Z,8.78
2017-12-16T01:57:01.165Z,8.76
2017-12-16T01:57:41.552Z,8.64
2017-12-16T01:58:21.946Z,8.65
2017-12-16T01:59:02.361Z,8.63
2017-12-16T01:59:42.760Z,8.6
2017-12-16T02:00:23.210Z,8.54
2017-12-16T02:01:03.545Z,8.57
2017-12-16T02:01:43.947Z,8.6
2017-12-16T02:02:24.353Z,8.64
2017-12-16T02:03:04.718Z,8.71
2017-12-16T02:03:45.104Z,8.75
2017-12-16T02:04:25.483Z,8.75
2017-12-16T02:05:05.875Z,8.89
2017-12-16T02:05:46.274Z,8.91
2017-12-16T02:06:26.723Z,8.94
2017-12-16T02:07:07.078Z,8.98
2017-12-16T02:07:47.472Z,9.01
2017-12-16T02:08:27.869Z,9.03
2017-12-16T02:09:08.291Z,9.1
2017-12-16T02:09:48.695Z,9.06
2017-12-16T02:10:29.080Z,8.97
2017-12-16T02:11:09.503Z,8.97
2017-12-16T02:11:49.905Z,8.94
2017-12-16T02:12:30.310Z,8.91
2017-12-16T02:13:10.708Z,8.89
2017-12-16T02:13:51.095Z,8.86
2017-12-16T02:14:31.512Z,8.73
2017-12-16T02:15:11.902Z,8.8
2017-12-16T02:15:52.327Z,8.82
2017-12-16T02:16:32.759Z,8.76
2017-12-16T02:17:13.136Z,8.76
2017-12-16T02:17:53.544Z,8.85
2017-12-16T02:18:33.945Z,8.86
2017-12-16T02:19:14.381Z,8.79
2017-12-16T02:19:54.750Z,8.89
2017-12-16T02:20:35.148Z,8.97
2017-12-16T02:21:15.518Z,8.94
2017-12-16T02:21:55.899Z,8.91
2017-12-16T02:22:36.302Z,9.03
2017-12-16T02:23:16.687Z,8.94
2017-12-16T02:23:57.081Z,9.03
2017-12-16T02:24:37.498Z,9.08
2017-12-16T02:25:17.906Z,9.06
2017-12-16T02:25:58.291Z,9.1
2017-12-16T02:27:36.162Z,9.06
2017-12-16T02:28:22.129Z,9.06
2017-12-16T02:29:01.206Z,8.88
2017-12-16T02:29:41.593Z,8.97
2017-12-16T02:30:22.018Z,8.91
2017-12-16T02:31:02.349Z,8.96
2017-12-16T02:31:42.778Z,8.91
2017-12-16T02:32:23.167Z,9.01
2017-12-16T02:33:03.585Z,8.96
2017-12-16T02:33:44.027Z,8.85
2017-12-16T02:34:24.360Z,8.86
2017-12-16T02:35:04.738Z,8.91
2017-12-16T02:35:45.185Z,8.89
2017-12-16T02:36:25.530Z,8.93
2017-12-16T02:37:05.946Z,8.89
2017-12-16T02:37:46.330Z,8.73
2017-12-16T02:38:26.718Z,8.71
2017-12-16T02:39:07.118Z,8.67
2017-12-16T02:39:47.506Z,8.61
2017-12-16T02:40:27.898Z,8.63
2017-12-16T02:41:08.341Z,8.71
2017-12-16T02:41:48.705Z,8.47
2017-12-16T02:42:29.093Z,8.49
2017-12-16T02:43:09.480Z,8.49
2017-12-16T02:43:49.897Z,8.5
2017-12-16T02:44:30.304Z,8.4
2017-12-16T02:45:10.718Z,8.32
2017-12-16T02:45:51.115Z,8.31
2017-12-16T02:46:31.564Z,8.42
2017-12-16T02:47:11.908Z,8.43
2017-12-16T02:47:52.291Z,8.39
2017-12-16T02:48:32.704Z,8.34
2017-12-16T02:49:13.091Z,8.37
2017-12-16T02:49:53.479Z,8.45
2017-12-16T02:50:33.865Z,8.52
2017-12-16T02:51:14.282Z,8.37
2017-12-16T02:51:54.671Z,8.55
2017-12-16T02:52:35.055Z,8.42
2017-12-16T02:53:15.397Z,8.34
2017-12-16T02:53:55.804Z,8.46
2017-12-16T02:54:36.232Z,8.5
2017-12-16T02:55:16.658Z,8.52
2017-12-16T02:55:57.019Z,8.4
2017-12-16T02:56:37.368Z,8.42
2017-12-16T02:57:17.746Z,8.37
2017-12-16T02:57:58.147Z,8.32
2017-12-16T02:58:38.547Z,8.4
2017-12-16T02:59:18.938Z,8.36
2017-12-16T02:59:59.359Z,8.32
2017-12-16T03:00:39.765Z,8.32
2017-12-16T03:01:20.179Z,8.37
2017-12-16T03:02:00.588Z,8.27
2017-12-16T03:02:40.951Z,8.31
2017-12-16T03:03:21.364Z,8.28
2017-12-16T03:04:01.748Z,8.24
2017-12-16T03:04:42.151Z,8.25
2017-12-16T03:05:22.553Z,8.2
2017-12-16T03:06:02.974Z,8.27
2017-12-16T03:06:43.408Z,8.24
2017-12-16T03:07:23.784Z,8.21
2017-12-16T03:08:04.155Z,8.17
2017-12-16T03:08:44.549Z,8.07
2017-12-16T03:09:24.958Z,7.99
2017-12-16T03:10:05.367Z,7.89
2017-12-16T03:10:45.832Z,7.89
2017-12-16T03:11:26.173Z,7.92
2017-12-16T03:12:06.598Z,7.82
2017-12-16T03:12:47.043Z,7.86
2017-12-16T03:13:27.397Z,7.81
2017-12-16T03:14:07.793Z,7.77
2017-12-16T03:14:48.204Z,7.76
2017-12-16T03:15:28.573Z,7.91
2017-12-16T03:16:08.976Z,7.91
2017-12-16T03:16:49.405Z,7.88
2017-12-16T03:17:29.910Z,7.92
2017-12-16T03:18:10.219Z,7.92
2017-12-16T03:18:50.624Z,7.82
2017-12-16T03:19:31.029Z,7.85
2017-12-16T03:21:46.859Z,7.96
2017-12-16T03:22:27.898Z,7.95
2017-12-16T03:23:12.169Z,7.94
2017-12-16T03:23:52.601Z,7.82
2017-12-16T03:24:32.954Z,7.77
2017-12-16T03:25:13.353Z,7.74
2017-12-16T03:25:53.780Z,7.71
2017-12-16T03:26:34.155Z,7.82
2017-12-16T03:27:14.580Z,7.71
2017-12-16T03:27:54.937Z,7.63
2017-12-16T03:28:35.409Z,7.62
2017-12-16T03:29:15.772Z,7.63
2017-12-16T03:29:56.184Z,7.6
2017-12-16T03:30:36.559Z,7.66
2017-12-16T03:31:16.987Z,7.63
2017-12-16T03:31:57.388Z,7.66
2017-12-16T03:32:37.807Z,7.66
2017-12-16T03:33:18.178Z,7.58
2017-12-16T03:33:58.591Z,7.54
2017-12-16T03:34:40.313Z,7.63
2017-12-16T03:35:20.811Z,7.58
2017-12-16T03:36:01.239Z,7.62
2017-12-16T03:36:41.943Z,7.69
2017-12-16T03:37:22.333Z,7.76
2017-12-16T03:38:02.781Z,7.79
2017-12-16T03:38:43.131Z,7.89
2017-12-16T03:39:23.509Z,7.96
2017-12-16T03:40:03.937Z,8.07
2017-12-16T03:40:44.355Z,8.04
2017-12-16T03:41:24.722Z,8.13
2017-12-16T03:42:05.171Z,8.12
2017-12-16T03:42:45.519Z,8.12
2017-12-16T03:43:25.937Z,8.1
2017-12-16T03:44:06.327Z,8.04
2017-12-16T03:44:46.709Z,8.06
2017-12-16T03:45:27.132Z,8.09
2017-12-16T03:46:07.500Z,8.07
2017-12-16T03:46:47.914Z,7.95
2017-12-16T03:47:28.292Z,7.99
2017-12-16T03:48:08.688Z,8.09
2017-12-16T03:48:49.102Z,8.07
2017-12-16T03:49:29.507Z,8.06
2017-12-16T03:50:09.898Z,8.18
2017-12-16T03:50:50.268Z,8.07
2017-12-16T03:51:30.660Z,8.13
2017-12-16T03:52:11.070Z,8.17
2017-12-16T03:52:51.417Z,8.18
2017-12-16T03:53:31.846Z,8.21
2017-12-16T03:54:12.243Z,8.24
2017-12-16T03:54:52.651Z,8.22
2017-12-16T03:55:33.079Z,8.2
2017-12-16T03:56:13.466Z,8.14
2017-12-16T03:56:53.927Z,8.18
2017-12-16T03:57:34.356Z,8.31
2017-12-16T03:58:14.668Z,8.22
2017-12-16T03:59:52.237Z,8.24
2017-12-16T04:00:32.865Z,8.28
2017-12-16T04:01:13.282Z,8.2
2017-12-16T04:01:53.663Z,8.18
2017-12-16T04:41:50.504Z,7.29
2017-12-16T04:42:41.103Z,7.16
2017-12-16T04:43:20.506Z,7.27
2017-12-16T04:44:00.882Z,7.19
2017-12-16T04:44:41.255Z,7.29
2017-12-16T04:45:22.870Z,7.3
2017-12-16T04:46:03.272Z,7.32
2017-12-16T04:46:43.681Z,7.3
2017-12-16T04:47:24.066Z,7.3
2017-12-16T04:48:04.474Z,7.29
2017-12-16T04:48:44.927Z,7.24
2017-12-16T04:49:27.921Z,7.34
2017-12-16T04:50:08.321Z,7.36
2017-12-16T04:50:48.768Z,7.57
2017-12-16T04:51:29.066Z,7.62
2017-12-16T04:52:09.467Z,7.62
2017-12-16T04:52:49.877Z,7.76
2017-12-16T04:54:29.891Z,7.71
2017-12-16T04:55:11.971Z,7.77
2017-12-16T04:55:52.643Z,7.73
2017-12-16T04:56:33.034Z,7.7
2017-12-16T04:57:13.375Z,7.69
2017-12-16T04:57:53.765Z,7.82
2017-12-16T04:58:34.177Z,7.74
2017-12-16T04:59:14.611Z,7.77
2017-12-16T04:59:55.024Z,7.84
2017-12-16T05:00:35.389Z,7.95
2017-12-16T05:01:15.761Z,7.82
2017-12-16T05:01:56.174Z,7.85
2017-12-16T05:02:36.578Z,7.88
2017-12-16T05:03:18.970Z,7.82
2017-12-16T05:03:58.721Z,7.85
2017-12-16T05:04:39.145Z,8
2017-12-16T05:05:19.493Z,7.94
2017-12-16T05:13:27.388Z,8.32
2017-12-16T05:14:07.787Z,8.31
2017-12-16T05:14:48.241Z,8.29
2017-12-16T05:16:36.200Z,8.5
2017-12-16T05:17:22.191Z,8.45
2017-12-16T05:18:03.447Z,8.58
2017-12-16T05:18:45.944Z,8.52
2017-12-16T05:19:26.224Z,8.6
2017-12-16T05:20:07.566Z,8.58
2017-12-16T05:20:51.461Z,8.67
2017-12-16T05:21:31.175Z,8.6
2017-12-16T05:22:11.557Z,8.58
2017-12-16T05:22:52.248Z,8.64
2017-12-16T05:23:33.336Z,8.67
2017-12-16T05:24:14.657Z,8.64
2017-12-16T05:24:58.877Z,8.64
2017-12-16T05:25:38.976Z,8.64
2017-12-16T05:26:19.590Z,8.47
2017-12-16T05:27:01.592Z,8.61
2017-12-16T05:29:43.716Z,8.57
2017-12-16T05:30:30.868Z,8.49
2017-12-16T05:31:24.725Z,8.49
2017-12-16T05:34:25.913Z,8.45
2017-12-16T05:37:55.595Z,8.43
2017-12-16T05:38:36.871Z,8.47
2017-12-16T05:39:17.997Z,8.5
2017-12-16T05:39:58.718Z,8.42
2017-12-16T05:40:39.703Z,8.37
2017-12-16T05:41:20.096Z,8.4
2017-12-16T05:43:14.059Z,8.4
2017-12-16T05:44:01.420Z,8.43
2017-12-16T05:44:40.040Z,8.43
2017-12-16T05:45:22.306Z,8.45
2017-12-16T05:46:03.298Z,8.5
2017-12-16T05:46:43.706Z,8.5
2017-12-16T05:47:24.796Z,8.46
2017-12-16T05:48:05.608Z,8.49
2017-12-16T05:50:08.084Z,8.52
2017-12-16T05:50:52.608Z,8.54
2017-12-16T05:51:41.184Z,8.45
2017-12-16T05:52:21.439Z,8.47
2017-12-16T05:53:01.834Z,8.46
2017-12-16T05:53:42.224Z,8.46
2017-12-16T05:54:23.777Z,8.32
2017-12-16T05:55:04.086Z,8.36
2017-12-16T05:55:44.489Z,8.28
2017-12-16T05:58:11.916Z,8.14
2017-12-16T05:59:03.882Z,8.36
2017-12-16T05:59:54.471Z,8.34
2017-12-16T06:02:19.288Z,8.37
2017-12-16T06:04:00.806Z,8.29
2017-12-16T06:07:45.279Z,8.45
2017-12-16T06:09:21.774Z,8.39
2017-12-16T06:13:19.728Z,8.36
2017-12-16T06:14:06.695Z,8.43
2017-12-16T06:14:46.462Z,8.36
2017-12-16T06:15:26.886Z,8.36
2017-12-16T06:16:07.581Z,8.4
2017-12-16T06:16:50.705Z,8.4
2017-12-16T06:17:32.021Z,8.37
2017-12-16T06:18:15.534Z,8.5
2017-12-16T06:18:55.951Z,8.45
2017-12-16T06:19:36.304Z,8.45
2017-12-16T06:20:19.722Z,8.47
2017-12-16T06:20:57.931Z,8.4
2017-12-16T06:21:38.599Z,8.42
2017-12-16T06:22:20.568Z,8.42
2017-12-16T06:23:00.961Z,8.49
2017-12-16T06:23:41.659Z,8.4
2017-12-16T06:24:22.286Z,8.28
2017-12-16T06:25:03.246Z,8.28
2017-12-16T06:25:44.521Z,8.28
2017-12-16T06:26:27.040Z,8.37
2017-12-16T06:27:07.426Z,8.39
2017-12-16T06:27:47.692Z,8.45
2017-12-16T06:28:28.393Z,8.47
2017-12-16T06:29:10.897Z,8.43
2017-12-16T06:29:50.782Z,8.43
2017-12-16T06:30:32.220Z,8.42
2017-12-16T06:31:12.217Z,8.5
2017-12-16T06:31:56.044Z,8.61
2017-12-16T06:32:36.307Z,8.5
2017-12-16T06:33:16.687Z,8.6
2017-12-16T06:33:57.978Z,8.7
2017-12-16T06:34:37.880Z,8.67
2017-12-16T06:35:19.443Z,8.65
2017-12-16T06:35:59.723Z,8.63
2017-12-16T06:36:43.233Z,8.68
2017-12-16T06:37:24.672Z,8.67
2017-12-16T06:38:05.183Z,8.65
2017-12-16T06:38:46.948Z,8.76
2017-12-16T06:39:28.072Z,8.73
2017-12-16T06:40:09.062Z,8.75
2017-12-16T06:40:49.422Z,8.78
2017-12-16T06:41:30.882Z,8.75
2017-12-16T06:42:11.238Z,8.65
2017-12-16T06:42:52.825Z,8.61
2017-12-16T06:43:36.455Z,8.6
2017-12-16T06:44:17.894Z,8.4
2017-12-16T06:44:59.614Z,8.55
2017-12-16T06:45:43.728Z,8.61
2017-12-16T06:46:22.787Z,8.5
2017-12-16T06:47:03.037Z,8.37
2017-12-16T06:47:43.429Z,8.45
2017-12-16T06:48:24.502Z,8.32
2017-12-16T06:49:05.482Z,8.27
2017-12-16T06:49:46.540Z,8.2
2017-12-16T06:50:27.832Z,8.14
2017-12-16T06:51:08.229Z,8.18
2017-12-16T06:51:49.270Z,8.09
2017-12-16T06:52:29.743Z,8
2017-12-16T06:53:10.644Z,7.95
2017-12-16T06:53:50.990Z,7.99
2017-12-16T06:55:32.421Z,7.92
2017-12-16T06:56:18.486Z,7.91
2017-12-16T06:57:15.772Z,8.06
2017-12-16T06:58:06.995Z,8
2017-12-16T06:58:45.705Z,8.09
2017-12-16T06:59:26.889Z,8
2017-12-16T07:00:07.951Z,7.99
2017-12-16T07:00:48.291Z,8.07
2017-12-16T07:01:28.708Z,8.09
2017-12-16T07:02:09.627Z,8.03
2017-12-16T07:02:50.017Z,8.12
2017-12-16T07:03:32.350Z,8.09
2017-12-16T07:04:14.481Z,8.2
2017-12-16T07:04:55.143Z,8.17
2017-12-16T07:05:35.744Z,8.12
2017-12-16T07:06:16.060Z,8.17
2017-12-16T07:06:56.445Z,8.07
2017-12-16T07:07:36.889Z,8.12
2017-12-16T07:08:17.413Z,8.17
2017-12-16T07:08:57.856Z,8.2
2017-12-16T07:09:40.810Z,8.14
2017-12-16T07:10:20.870Z,8.22
2017-12-16T07:11:01.689Z,8.29
2017-12-16T07:11:42.611Z,8.32
2017-12-16T07:12:22.191Z,8.43
2017-12-16T07:13:02.608Z,8.37
2017-12-16T07:13:43.014Z,8.5
2017-12-16T07:14:23.423Z,8.45
2017-12-16T07:15:03.840Z,8.47
2017-12-16T07:15:44.700Z,8.43
2017-12-16T07:16:25.946Z,8.29
2017-12-16T07:17:06.452Z,8.22
2017-12-16T07:17:48.796Z,8.2
2017-12-16T07:18:30.813Z,8.18
2017-12-16T07:19:10.831Z,8.18
2017-12-16T07:19:51.233Z,8.21
2017-12-16T07:20:31.670Z,8.27
2017-12-16T07:21:12.796Z,8.18
2017-12-16T07:21:54.917Z,8.2
2017-12-16T07:22:34.834Z,8.09
2017-12-16T07:23:15.661Z,8.04
2017-12-16T07:23:56.458Z,8.18
2017-12-16T07:24:38.730Z,8.18
2017-12-16T07:25:19.135Z,8.17
2017-12-16T07:26:00.013Z,8.13
2017-12-16T07:27:55.819Z,8
2017-12-16T07:28:47.226Z,8.02
2017-12-16T07:31:13.728Z,8.2
2017-12-16T07:32:10.895Z,8.22
2017-12-16T07:33:01.098Z,8.25
2017-12-16T07:33:43.131Z,8.12
2017-12-16T07:34:24.062Z,8.04
2017-12-16T07:35:04.312Z,7.99
2017-12-16T07:35:45.806Z,8.02
2017-12-16T07:36:25.844Z,8.04
2017-12-16T07:37:06.238Z,7.92
2017-12-16T07:37:46.624Z,7.96
2017-12-16T07:38:27.071Z,7.89
2017-12-16T07:39:07.639Z,7.94
2017-12-16T07:39:48.170Z,7.94
2017-12-16T07:40:28.276Z,7.84
2017-12-16T07:41:08.979Z,7.82
2017-12-16T07:41:49.415Z,7.85
2017-12-16T07:42:34.408Z,7.84
2017-12-16T07:43:14.927Z,7.94
2017-12-16T07:43:55.454Z,7.99
2017-12-16T07:44:36.605Z,7.96
2017-12-16T07:45:19.584Z,7.84
2017-12-16T07:45:59.998Z,7.85
2017-12-16T07:46:41.887Z,7.81
2017-12-16T07:47:22.772Z,7.95
2017-12-16T07:48:06.179Z,7.96
2017-12-16T07:48:47.713Z,7.99
2017-12-16T07:49:27.062Z,7.92
2017-12-16T07:50:09.051Z,8.04
2017-12-16T07:50:50.379Z,7.92
2017-12-16T07:51:31.218Z,7.95
2017-12-16T07:52:11.548Z,8.13
2017-12-16T07:52:52.013Z,8.21
2017-12-16T07:53:32.384Z,8.21
2017-12-16T07:54:13.076Z,8.25
2017-12-16T07:54:54.185Z,8.14
2017-12-16T07:55:35.342Z,8.14
2017-12-16T07:56:15.714Z,8.2
2017-12-16T07:57:00.050Z,8.21
2017-12-16T07:57:39.620Z,8.25
2017-12-16T07:58:21.878Z,8.22
2017-12-16T07:59:05.346Z,8.22
2017-12-16T07:59:48.579Z,8.14
2017-12-16T08:00:27.698Z,8.2
2017-12-16T08:01:08.944Z,8.1
2017-12-16T08:01:51.509Z,8.04
2017-12-16T08:02:31.816Z,8.07
2017-12-16T08:03:12.400Z,8.04
2017-12-16T08:03:53.062Z,7.99
2017-12-16T08:04:33.488Z,8.03
2017-12-16T08:05:14.300Z,7.94
2017-12-16T08:05:57.117Z,8.03
2017-12-16T08:06:37.561Z,8.07
2017-12-16T08:07:18.159Z,7.99
2017-12-16T08:07:59.140Z,7.89
2017-12-16T08:08:40.967Z,7.86
2017-12-16T08:09:21.249Z,7.96
2017-12-16T08:10:02.316Z,7.95
2017-12-16T08:10:42.498Z,7.95
2017-12-16T08:11:22.774Z,7.92
2017-12-16T08:12:03.150Z,7.79
2017-12-16T08:12:43.821Z,7.94
2017-12-16T08:13:24.571Z,7.95
2017-12-16T08:14:05.323Z,7.99
2017-12-16T08:14:45.684Z,7.91
2017-12-16T08:15:26.505Z,7.99
2017-12-16T08:16:07.466Z,7.92
2017-12-16T08:16:48.020Z,7.96
2017-12-16T08:17:30.137Z,7.94
2017-12-16T08:18:09.607Z,7.96
2017-12-16T08:18:50.755Z,7.91
2017-12-16T08:19:33.616Z,7.96
2017-12-16T08:20:16.438Z,8.06
2017-12-16T08:20:56.489Z,8.09
2017-12-16T08:21:36.855Z,8.06
2017-12-16T08:22:17.192Z,8.14
2017-12-16T08:22:57.571Z,8.18
2017-12-16T08:23:38.228Z,8.14
2017-12-16T08:24:18.639Z,8.13
2017-12-16T08:24:59.074Z,8.22
2017-12-16T08:25:39.452Z,8.32
2017-12-16T08:26:19.819Z,8.25
2017-12-16T08:27:00.236Z,8.17
2017-12-16T08:27:44.156Z,8.25
2017-12-16T08:28:23.221Z,8.28
2017-12-16T08:29:04.520Z,8.18
2017-12-16T08:29:45.749Z,8.21
2017-12-16T08:30:26.752Z,8.22
2017-12-16T08:31:07.602Z,8.13
2017-12-16T08:31:47.623Z,8.22
2017-12-16T08:32:28.047Z,8.17
2017-12-16T08:33:09.125Z,8.2
2017-12-16T08:33:50.451Z,8.18
2017-12-16T08:34:30.798Z,8.18
2017-12-16T08:35:11.185Z,8.28
2017-12-16T08:35:51.588Z,8.28
2017-12-16T08:36:32.351Z,8.24
2017-12-16T08:37:12.650Z,8.28
2017-12-16T08:37:53.211Z,8.18
2017-12-16T08:38:33.558Z,8.22
2017-12-16T08:39:13.918Z,8.13
2017-12-16T08:39:54.274Z,8.1
2017-12-16T08:40:34.655Z,8.21
2017-12-16T08:41:15.074Z,8.18
2017-12-16T08:41:55.494Z,8.22
2017-12-16T08:42:35.892Z,8.17
2017-12-16T08:43:16.292Z,8.18
2017-12-16T08:43:58.564Z,8.25
2017-12-16T08:44:38.291Z,8.28
2017-12-16T08:45:19.689Z,8.4
2017-12-16T08:45:59.782Z,8.46
2017-12-16T08:46:40.219Z,8.54
2017-12-16T08:47:20.576Z,8.5
2017-12-16T08:48:00.967Z,8.49
2017-12-16T08:48:41.390Z,8.5
2017-12-16T08:49:21.838Z,8.49
2017-12-16T08:50:02.513Z,8.45
2017-12-16T08:50:42.916Z,8.55
2017-12-16T08:51:23.502Z,8.6
2017-12-16T08:52:05.050Z,8.57
2017-12-16T08:52:45.630Z,8.49
2017-12-16T08:53:26.043Z,8.43
2017-12-16T08:54:06.460Z,8.47
2017-12-16T08:54:46.904Z,8.46
2017-12-16T08:55:27.325Z,8.45
2017-12-16T08:56:07.690Z,8.52
2017-12-16T08:56:48.167Z,8.55
2017-12-16T08:57:28.600Z,8.6
2017-12-16T08:58:08.909Z,8.55
2017-12-16T08:58:49.309Z,8.55
2017-12-16T08:59:29.746Z,8.58
2017-12-16T09:00:10.155Z,8.49
2017-12-16T09:00:50.612Z,8.58
2017-12-16T09:01:30.986Z,8.5
2017-12-16T09:02:11.492Z,8.57
2017-12-16T09:02:53.383Z,8.6
2017-12-16T09:03:35.065Z,8.58
2017-12-16T09:04:15.189Z,8.57
2017-12-16T09:04:55.568Z,8.6
2017-12-16T09:05:36.003Z,8.47
2017-12-16T09:06:16.378Z,8.49
2017-12-16T09:06:56.782Z,8.43
2017-12-16T09:07:37.718Z,8.4
2017-12-16T09:08:18.018Z,8.47
2017-12-16T09:08:58.770Z,8.57
2017-12-16T09:09:40.336Z,8.55
2017-12-16T09:10:20.697Z,8.54
2017-12-16T09:11:01.102Z,8.76
2017-12-16T09:11:42.889Z,8.68
2017-12-16T09:12:22.200Z,8.75
2017-12-16T09:13:02.560Z,8.71
2017-12-16T09:13:42.978Z,8.64
2017-12-16T09:14:23.371Z,8.75
2017-12-16T09:15:03.838Z,8.63
2017-12-16T09:15:44.226Z,8.79
2017-12-16T09:16:25.048Z,8.79
2017-12-16T09:17:05.460Z,8.94
2017-12-16T09:17:46.003Z,9.08
2017-12-16T09:18:26.355Z,9.17
2017-12-16T09:19:06.776Z,9.4
2017-12-16T09:19:47.443Z,9.68
2017-12-16T09:20:28.251Z,9.92
2017-12-16T09:21:08.117Z,10.09
2017-12-16T09:21:49.943Z,10.2
2017-12-16T09:22:31.297Z,10.34
2017-12-16T09:24:32.557Z,10.43
2017-12-16T09:25:20.827Z,10.44
2017-12-16T09:26:14.003Z,10.38
2017-12-16T09:26:51.969Z,10.34
2017-12-16T09:27:32.398Z,10.32
2017-12-16T09:28:13.219Z,10.29
2017-12-16T09:28:53.360Z,10.29
2017-12-16T09:29:33.762Z,10.14
2017-12-16T09:30:14.169Z,10.22
2017-12-16T09:30:55.231Z,10.17
2017-12-16T09:31:36.369Z,10.01
2017-12-16T09:32:17.188Z,10.04
2017-12-16T09:32:57.848Z,9.99
2017-12-16T09:33:38.148Z,9.88
2017-12-16T09:34:18.537Z,9.86
2017-12-16T09:34:58.958Z,9.92
2017-12-16T09:35:39.451Z,10.02
2017-12-16T09:36:19.840Z,10.1
2017-12-16T09:37:00.275Z,10.17
2017-12-16T09:37:41.086Z,10.24
2017-12-16T09:38:26.147Z,10.35
2017-12-16T09:39:06.413Z,10.54
2017-12-16T09:39:48.737Z,10.73
2017-12-16T09:40:31.312Z,11.02
2017-12-16T09:41:11.749Z,11.02
2017-12-16T09:41:52.110Z,11.05
2017-12-16T09:42:32.771Z,11.24
2017-12-16T09:43:13.922Z,11.35
2017-12-16T09:43:54.310Z,11.51
2017-12-16T09:44:34.764Z,11.53
2017-12-16T09:45:15.139Z,11.67
2017-12-16T09:45:55.788Z,11.74
2017-12-16T09:46:36.054Z,11.98
2017-12-16T09:47:16.461Z,11.98
2017-12-16T09:47:58.504Z,12.08
2017-12-16T09:48:39.585Z,12.15
2017-12-16T09:49:20.840Z,12.34
2017-12-16T09:50:03.425Z,12.43
2017-12-16T09:50:44.040Z,12.61
2017-12-16T09:51:24.736Z,12.71
2017-12-16T09:52:05.485Z,12.84
2017-12-16T09:52:47.060Z,12.89
2017-12-16T09:53:28.051Z,13.06
2017-12-16T09:54:10.678Z,13.1
2017-12-16T09:54:51.123Z,13.16
2017-12-16T09:55:33.405Z,13.32
2017-12-16T09:56:14.550Z,13.47
2017-12-16T09:56:55.600Z,13.48
2017-12-16T09:57:37.914Z,13.57
2017-12-16T09:58:21.006Z,13.65
2017-12-16T09:59:00.714Z,13.69
2017-12-16T09:59:43.217Z,13.57
2017-12-16T10:00:24.546Z,13.87
2017-12-16T10:01:05.267Z,13.72
2017-12-16T10:01:46.367Z,13.88
2017-12-16T10:02:28.363Z,13.87
2017-12-16T10:03:09.437Z,13.68
2017-12-16T10:03:51.288Z,13.62
2017-12-16T10:45:44.962Z,10.46
2017-12-16T10:46:34.225Z,10.46
2017-12-16T10:47:20.333Z,10.57
2017-12-16T10:48:00.150Z,10.51
2017-12-16T10:48:40.698Z,10.6
2017-12-16T10:49:21.066Z,10.66
2017-12-16T10:50:02.420Z,10.73
2017-12-16T10:50:42.820Z,10.87
2017-12-16T10:51:23.516Z,10.87
2017-12-16T10:52:03.901Z,11.03
2017-12-16T10:52:46.490Z,11.05
2017-12-16T10:53:26.880Z,10.87
2017-12-16T10:54:09.002Z,10.98
2017-12-16T10:54:51.249Z,10.86
2017-12-16T10:55:31.395Z,10.88
2017-12-16T10:56:11.744Z,10.84
2017-12-16T10:56:52.163Z,10.88
2017-12-16T10:57:32.601Z,10.88
2017-12-16T10:58:13.493Z,10.75
2017-12-16T10:58:54.523Z,10.7
2017-12-16T10:59:36.803Z,10.73
2017-12-16T11:00:17.334Z,10.84
2017-12-16T11:00:57.752Z,10.86
2017-12-16T11:01:39.882Z,10.9
2017-12-16T11:02:20.674Z,10.72
2017-12-16T11:03:02.159Z,10.68
2017-12-16T11:03:44.619Z,10.73
2017-12-16T11:04:26.219Z,10.88
2017-12-16T11:05:06.764Z,11.09
2017-12-16T11:08:36.001Z,12.05
2017-12-16T11:09:22.246Z,12.15
2017-12-16T11:10:02.339Z,12.33
2017-12-16T11:10:42.572Z,12.37
2017-12-16T11:11:27.276Z,12.59
2017-12-16T11:12:07.667Z,12.79
2017-12-16T11:14:02.843Z,13.21
2017-12-16T11:14:46.911Z,13.48
2017-12-16T11:15:31.928Z,13.57
2017-12-16T11:16:11.878Z,13.36
2017-12-16T11:16:53.713Z,13.35
2017-12-16T11:17:35.553Z,13.27
2017-12-16T11:18:16.528Z,13.24
2017-12-16T11:18:57.968Z,13.22
2017-12-16T11:19:41.903Z,13.04
2017-12-16T11:20:22.227Z,12.98